createdAt,value
2023-08-21T00:01:57.223Z,90.50
2023-08-21T00:04:58.933Z,90.50
2023-08-21T00:08:00.647Z,90.70
2023-08-21T00:11:02.384Z,90.80
2023-08-21T00:14:04.307Z,90.70
2023-08-21T00:17:06.169Z,90.80
2023-08-21T00:20:10.461Z,90.80
2023-08-21T00:23:12.236Z,90.90
2023-08-21T00:26:14.085Z,91.00
2023-08-21T00:29:15.826Z,91.00
2023-08-21T00:32:17.777Z,91.10
2023-08-21T00:35:19.509Z,91.20
2023-08-21T00:38:21.403Z,91.30
2023-08-21T00:41:23.190Z,91.40
2023-08-21T00:44:24.878Z,91.60
2023-08-21T00:47:26.594Z,91.60
2023-08-21T00:50:28.386Z,92.00
2023-08-21T00:53:30.286Z,91.70
2023-08-21T00:56:32.445Z,91.80
2023-08-21T00:59:34.611Z,91.90
2023-08-21T01:02:36.715Z,92.00
2023-08-21T01:05:39.225Z,92.10
2023-08-21T01:09:13.527Z,92.20
2023-08-21T01:12:55.271Z,92.60
2023-08-21T01:15:58.198Z,92.60
2023-08-21T01:19:02.353Z,92.40
2023-08-21T01:22:04.639Z,92.70
2023-08-21T01:25:06.984Z,92.80
2023-08-21T01:28:08.805Z,92.90
2023-08-21T01:31:21.473Z,93.00
2023-08-21T01:34:24.077Z,93.30
2023-08-21T01:37:27.637Z,93.00
2023-08-21T01:40:29.513Z,93.20
2023-08-21T01:43:31.574Z,93.20
2023-08-21T01:46:33.399Z,93.20
2023-08-21T01:49:35.169Z,93.30
2023-08-21T01:52:37.335Z,93.40
2023-08-21T01:55:39.494Z,93.40
2023-08-21T01:58:41.267Z,93.50
2023-08-21T02:01:43.085Z,93.50
2023-08-21T02:04:44.910Z,93.60
2023-08-21T02:07:46.942Z,93.90
2023-08-21T02:10:53.007Z,93.70
2023-08-21T02:13:54.771Z,93.80
2023-08-21T02:16:56.518Z,93.80
2023-08-21T02:19:58.321Z,93.90
2023-08-21T02:23:00.173Z,94.10
2023-08-21T02:26:02.052Z,94.10
2023-08-21T02:29:05.211Z,94.10
2023-08-21T02:32:07.076Z,94.10
2023-08-21T02:35:09.513Z,94.20
2023-08-21T02:38:11.309Z,94.30
2023-08-21T02:41:14.272Z,94.30
2023-08-21T02:44:16.981Z,94.30
2023-08-21T02:47:18.738Z,94.40
2023-08-21T02:50:20.578Z,94.40
2023-08-21T02:53:22.415Z,94.50
2023-08-21T02:56:24.161Z,94.60
2023-08-21T02:59:25.977Z,94.60
2023-08-21T03:02:28.385Z,94.70
2023-08-21T03:05:30.289Z,94.70
2023-08-21T03:08:32.520Z,94.70
2023-08-21T03:11:34.391Z,94.80
2023-08-21T03:14:36.236Z,94.80
2023-08-21T03:17:38.106Z,94.80
2023-08-21T03:20:45.837Z,94.90
2023-08-21T03:23:47.537Z,95.10
2023-08-21T03:26:49.365Z,95.00
2023-08-21T03:29:51.315Z,95.00
2023-08-21T03:32:53.230Z,95.00
2023-08-21T03:35:56.144Z,95.00
2023-08-21T03:39:02.137Z,95.10
2023-08-21T03:42:04.299Z,95.10
2023-08-21T03:45:06.875Z,95.20
2023-08-21T03:48:08.800Z,95.20
2023-08-21T03:51:10.849Z,95.30
2023-08-21T03:54:12.660Z,95.30
2023-08-21T03:57:14.437Z,95.40
2023-08-21T04:00:16.350Z,95.40
2023-08-21T04:03:18.584Z,95.40
2023-08-21T04:06:20.617Z,95.40
2023-08-21T04:09:22.515Z,95.50
2023-08-21T04:12:24.256Z,95.60
2023-08-21T04:15:26.703Z,95.60
2023-08-21T04:18:40.046Z,95.70
2023-08-21T04:21:43.920Z,95.70
2023-08-21T04:24:45.773Z,95.80
2023-08-21T04:27:47.563Z,95.80
2023-08-21T04:30:49.309Z,95.80
2023-08-21T04:33:51.072Z,95.90
2023-08-21T04:36:53.737Z,96.30
2023-08-21T04:39:56.036Z,96.00
2023-08-21T04:42:57.853Z,96.10
2023-08-21T04:45:59.707Z,96.20
2023-08-21T04:49:01.590Z,96.20
2023-08-21T04:52:03.465Z,96.40
2023-08-21T04:55:05.790Z,96.50
2023-08-21T04:58:08.371Z,96.60
2023-08-21T05:01:10.642Z,96.80
2023-08-21T05:04:12.483Z,96.80
2023-08-21T05:07:14.311Z,96.90
2023-08-21T05:10:16.343Z,97.00
2023-08-21T05:13:19.020Z,97.20
2023-08-21T05:16:20.892Z,97.30
2023-08-21T05:19:22.726Z,97.40
2023-08-21T05:22:24.576Z,97.50
2023-08-21T05:25:26.392Z,97.40
2023-08-21T05:28:28.147Z,97.60
2023-08-21T05:31:30.154Z,97.70
2023-08-21T05:34:32.437Z,97.80
2023-08-21T05:37:34.275Z,98.20
2023-08-21T05:40:36.035Z,98.00
2023-08-21T05:43:37.820Z,98.10
2023-08-21T05:46:39.771Z,98.30
2023-08-21T05:49:41.797Z,98.30
2023-08-21T05:52:43.884Z,98.40
2023-08-21T05:55:45.925Z,98.50
2023-08-21T05:58:47.760Z,98.60
2023-08-21T06:01:49.777Z,98.70
2023-08-21T06:04:51.531Z,98.80
2023-08-21T06:07:53.402Z,98.90
2023-08-21T06:10:55.207Z,99.00
2023-08-21T06:13:56.962Z,98.90
2023-08-21T06:17:03.871Z,98.80
2023-08-21T06:20:07.104Z,98.60
2023-08-21T06:23:09.253Z,98.50
2023-08-21T06:26:11.105Z,98.40
2023-08-21T06:29:13.359Z,98.40
2023-08-21T06:32:15.218Z,98.50
2023-08-21T06:35:17.551Z,98.70
2023-08-21T06:38:19.361Z,98.80
2023-08-21T06:41:21.111Z,98.80
2023-08-21T06:44:22.898Z,99.10
2023-08-21T06:47:24.897Z,99.00
2023-08-21T06:50:27.311Z,99.00
2023-08-21T06:53:29.679Z,98.90
2023-08-21T06:56:31.530Z,99.00
2023-08-21T06:59:37.012Z,98.90
2023-08-21T07:02:39.411Z,98.90
2023-08-21T07:05:41.455Z,98.90
2023-08-21T07:08:44.329Z,98.90
2023-08-21T07:11:46.170Z,98.90
2023-08-21T07:14:47.988Z,99.00
2023-08-21T07:17:49.877Z,99.00
2023-08-21T07:20:54.649Z,99.00
2023-08-21T07:23:56.458Z,99.10
2023-08-21T07:26:58.696Z,99.20
2023-08-21T07:30:00.540Z,99.20
2023-08-21T07:33:02.352Z,99.20
2023-08-21T07:36:05.893Z,99.20
2023-08-21T07:39:07.774Z,99.20
2023-08-21T07:42:11.713Z,99.30
2023-08-21T07:45:13.563Z,99.60
2023-08-21T07:48:15.366Z,99.20
2023-08-21T07:51:17.312Z,99.20
2023-08-21T07:54:19.173Z,99.30
2023-08-21T07:57:21.213Z,99.40
2023-08-21T08:00:22.998Z,99.00
2023-08-21T08:03:24.853Z,98.90
2023-08-21T08:06:26.653Z,99.00
2023-08-21T08:09:28.461Z,99.20
2023-08-21T08:12:30.212Z,99.40
2023-08-21T08:15:32.060Z,99.70
2023-08-21T08:18:33.879Z,99.70
2023-08-21T08:21:35.682Z,99.70
2023-08-21T08:24:37.450Z,99.50
2023-08-21T08:27:39.222Z,99.50
2023-08-21T08:30:40.986Z,99.40
2023-08-21T08:33:42.786Z,98.70
2023-08-21T08:36:44.903Z,98.10
2023-08-21T08:39:49.932Z,97.70
2023-08-21T08:42:52.500Z,96.30
2023-08-21T08:45:57.629Z,96.00
2023-08-21T08:49:01.287Z,95.30
2023-08-21T08:52:03.513Z,94.70
2023-08-21T08:55:07.819Z,94.00
2023-08-21T08:58:09.568Z,93.10
2023-08-21T09:01:12.010Z,92.60
2023-08-21T09:04:13.922Z,92.40
2023-08-21T09:07:19.081Z,92.00
2023-08-21T09:10:20.911Z,90.90
2023-08-21T09:13:22.868Z,91.20
2023-08-21T09:16:26.562Z,90.80
2023-08-21T09:19:28.638Z,89.90
2023-08-21T09:22:30.918Z,88.50
2023-08-21T09:25:40.239Z,87.50
2023-08-21T09:28:42.054Z,85.40
2023-08-21T09:31:46.971Z,86.30
2023-08-21T09:34:48.881Z,86.40
2023-08-21T09:37:53.926Z,85.00
2023-08-21T09:40:56.722Z,82.90
2023-08-21T09:44:01.911Z,81.70
2023-08-21T09:47:04.803Z,80.00
2023-08-21T09:50:07.206Z,80.10
2023-08-21T09:53:09.393Z,79.60
2023-08-21T09:56:12.479Z,78.50
2023-08-21T09:59:15.247Z,76.70
2023-08-21T10:02:17.200Z,75.60
2023-08-21T10:05:19.729Z,75.50
2023-08-21T10:08:26.478Z,75.30
2023-08-21T10:11:29.537Z,74.10
2023-08-21T10:14:31.553Z,73.50
2023-08-21T10:17:33.514Z,73.80
2023-08-21T10:20:39.632Z,72.80
2023-08-21T10:23:45.957Z,71.20
2023-08-21T10:26:48.096Z,71.40
2023-08-21T10:29:59.232Z,71.00
2023-08-21T10:33:01.547Z,69.30
2023-08-21T10:36:03.380Z,69.40
2023-08-21T10:39:13.420Z,71.20
2023-08-21T10:42:15.543Z,70.60
2023-08-21T10:45:17.629Z,70.20
2023-08-21T10:48:19.513Z,69.90
2023-08-21T10:51:21.524Z,68.80
2023-08-21T10:54:23.268Z,68.40
2023-08-21T10:57:26.666Z,68.00
2023-08-21T11:00:28.691Z,68.60
2023-08-21T11:03:30.446Z,67.60
2023-08-21T11:06:32.590Z,67.20
2023-08-21T11:09:37.431Z,67.10
2023-08-21T11:12:39.930Z,64.80
2023-08-21T11:15:41.838Z,64.70
2023-08-21T11:18:43.653Z,63.70
2023-08-21T11:21:52.376Z,62.50
2023-08-21T11:24:54.813Z,61.10
2023-08-21T11:27:57.094Z,62.80
2023-08-21T11:31:00.154Z,61.30
2023-08-21T11:34:10.968Z,61.90
2023-08-21T11:37:22.210Z,61.70
2023-08-21T11:40:24.104Z,60.60
2023-08-21T11:43:39.801Z,61.00
2023-08-21T11:46:41.653Z,56.60
2023-08-21T11:49:45.270Z,58.60
2023-08-21T11:52:47.029Z,59.00
2023-08-21T11:55:48.925Z,58.40
2023-08-21T11:58:51.734Z,57.60
2023-08-21T12:01:53.863Z,57.90
2023-08-21T12:05:06.671Z,57.80
2023-08-21T12:08:08.928Z,56.50
2023-08-21T12:11:10.710Z,58.20
2023-08-21T12:14:12.484Z,58.10
2023-08-21T12:17:14.271Z,57.70
2023-08-21T12:20:16.077Z,57.40
2023-08-21T12:23:17.859Z,57.30
2023-08-21T12:26:22.466Z,56.90
2023-08-21T12:29:25.702Z,57.50
2023-08-21T12:32:27.564Z,59.30
2023-08-21T12:35:29.599Z,59.20
2023-08-21T12:38:31.384Z,58.70
2023-08-21T12:41:37.120Z,57.80
2023-08-21T12:44:39.832Z,57.60
2023-08-21T12:47:41.998Z,56.90
2023-08-21T12:50:43.929Z,56.40
2023-08-21T12:53:45.738Z,55.80
2023-08-21T12:56:47.553Z,55.80
2023-08-21T12:59:49.849Z,55.60
2023-08-21T13:02:51.906Z,56.10
2023-08-21T13:05:53.786Z,55.60
2023-08-21T13:08:55.563Z,56.40
2023-08-21T13:11:57.481Z,56.40
2023-08-21T13:15:00.380Z,56.00
2023-08-21T13:18:02.284Z,55.80
2023-08-21T13:21:04.413Z,54.80
2023-08-21T13:24:06.264Z,55.50
2023-08-21T13:27:08.038Z,55.80
2023-08-21T13:30:10.751Z,55.70
2023-08-21T13:33:12.563Z,56.00
2023-08-21T13:36:15.480Z,56.10
2023-08-21T13:39:17.370Z,56.20
2023-08-21T13:42:19.157Z,56.10
2023-08-21T13:45:24.034Z,55.20
2023-08-21T13:48:25.845Z,54.50
2023-08-21T13:51:27.762Z,55.00
2023-08-21T13:54:30.633Z,54.40
2023-08-21T13:57:33.746Z,55.00
2023-08-21T14:00:36.544Z,53.80
2023-08-21T14:03:38.456Z,53.60
2023-08-21T14:06:40.384Z,53.60
2023-08-21T14:09:42.227Z,54.30
2023-08-21T14:12:44.075Z,53.70
2023-08-21T14:15:46.226Z,53.30
2023-08-21T14:18:48.054Z,53.30
2023-08-21T14:21:49.797Z,52.90
2023-08-21T14:24:51.766Z,53.30
2023-08-21T14:27:53.820Z,52.90
2023-08-21T14:30:55.616Z,52.60
2023-08-21T14:33:57.529Z,52.80
2023-08-21T14:37:00.679Z,53.70
2023-08-21T14:40:07.696Z,53.10
2023-08-21T14:43:09.947Z,53.40
2023-08-21T14:46:12.571Z,52.50
2023-08-21T14:49:15.251Z,52.50
2023-08-21T14:52:17.155Z,51.70
2023-08-21T14:55:18.944Z,52.00
2023-08-21T14:58:20.693Z,52.60
2023-08-21T15:01:22.572Z,52.40
2023-08-21T15:04:24.461Z,52.80
2023-08-21T15:07:26.451Z,52.70
2023-08-21T15:10:28.975Z,52.60
2023-08-21T15:13:30.770Z,52.70
2023-08-21T15:16:32.744Z,52.80
2023-08-21T15:19:34.475Z,52.40
2023-08-21T15:22:36.278Z,52.40
2023-08-21T15:25:38.369Z,52.50
2023-08-21T15:28:40.153Z,52.90
2023-08-21T15:31:41.998Z,53.20
2023-08-21T15:34:43.858Z,53.10
2023-08-21T15:37:46.559Z,53.50
2023-08-21T15:40:48.377Z,53.30
2023-08-21T15:43:50.214Z,53.70
2023-08-21T15:47:01.481Z,53.60
2023-08-21T15:50:13.723Z,53.10
2023-08-21T15:53:15.827Z,53.60
2023-08-21T15:56:17.559Z,53.30
2023-08-21T15:59:19.345Z,54.20
2023-08-21T16:02:21.138Z,53.30
2023-08-21T16:05:23.831Z,53.70
2023-08-21T16:08:26.221Z,53.20
2023-08-21T16:11:27.973Z,53.40
2023-08-21T16:14:30.306Z,53.00
2023-08-21T16:17:32.396Z,53.10
2023-08-21T16:20:34.219Z,53.00
2023-08-21T16:23:36.078Z,53.00
2023-08-21T16:26:38.075Z,52.50
2023-08-21T16:29:39.871Z,53.00
2023-08-21T16:32:41.901Z,53.10
2023-08-21T16:35:43.969Z,52.90
2023-08-21T16:38:45.856Z,52.80
2023-08-21T16:41:47.644Z,52.60
2023-08-21T16:44:49.449Z,52.60
2023-08-21T16:47:51.532Z,53.20
2023-08-21T16:50:53.368Z,53.80
2023-08-21T16:53:55.661Z,53.60
2023-08-21T16:56:57.478Z,53.50
2023-08-21T16:59:59.278Z,53.40
2023-08-21T17:03:01.124Z,53.80
2023-08-21T17:06:03.226Z,54.40
2023-08-21T17:09:05.717Z,54.30
2023-08-21T17:12:07.736Z,54.90
2023-08-21T17:15:09.840Z,55.20
2023-08-21T17:18:11.779Z,55.20
2023-08-21T17:21:14.128Z,55.50
2023-08-21T17:24:16.026Z,55.50
2023-08-21T17:27:18.643Z,56.00
2023-08-21T17:30:20.594Z,56.20
2023-08-21T17:33:22.433Z,55.90
2023-08-21T17:36:26.122Z,56.20
2023-08-21T17:39:28.454Z,56.70
2023-08-21T17:42:30.262Z,56.80
2023-08-21T17:45:34.124Z,57.00
2023-08-21T17:48:36.236Z,57.10
2023-08-21T17:51:38.241Z,57.10
2023-08-21T17:54:40.018Z,57.20
2023-08-21T17:57:42.655Z,57.50
2023-08-21T18:00:44.903Z,57.80
2023-08-21T18:03:46.743Z,58.00
2023-08-21T18:06:48.686Z,58.30
2023-08-21T18:09:50.592Z,58.50
2023-08-21T18:12:52.426Z,58.80
2023-08-21T18:15:54.180Z,59.10
2023-08-21T18:18:55.949Z,59.40
2023-08-21T18:21:57.738Z,59.70
2023-08-21T18:24:59.517Z,59.90
2023-08-21T18:28:01.247Z,60.20
2023-08-21T18:31:03.917Z,60.50
2023-08-21T18:34:05.854Z,60.50
2023-08-21T18:37:09.311Z,60.90
2023-08-21T18:40:11.633Z,61.40
2023-08-21T18:43:13.611Z,61.70
2023-08-21T18:46:15.953Z,62.30
2023-08-21T18:49:17.902Z,62.30
2023-08-21T18:52:19.690Z,62.90
2023-08-21T18:55:21.537Z,63.10
2023-08-21T18:58:23.320Z,63.80
2023-08-21T19:01:25.133Z,63.90
2023-08-21T19:04:28.001Z,64.30
2023-08-21T19:07:29.821Z,64.90
2023-08-21T19:10:31.742Z,65.80
2023-08-21T19:13:34.823Z,65.70
2023-08-21T19:16:36.588Z,65.80
2023-08-21T19:19:38.329Z,66.20
2023-08-21T19:22:40.506Z,66.70
2023-08-21T19:25:42.440Z,66.80
2023-08-21T19:28:44.233Z,67.10
2023-08-21T19:31:46.107Z,67.30
2023-08-21T19:34:48.077Z,67.50
2023-08-21T19:37:49.842Z,67.70
2023-08-21T19:40:52.095Z,68.00
2023-08-21T19:43:53.887Z,68.10
2023-08-21T19:46:56.379Z,68.50
2023-08-21T19:49:58.348Z,69.30
2023-08-21T19:53:00.543Z,68.90
2023-08-21T19:56:04.675Z,69.30
2023-08-21T19:59:06.652Z,69.30
2023-08-21T20:02:08.636Z,69.70
2023-08-21T20:05:10.883Z,70.10
2023-08-21T20:08:12.803Z,70.40
2023-08-21T20:11:14.947Z,70.60
2023-08-21T20:14:18.108Z,71.10
2023-08-21T20:17:21.325Z,71.40
2023-08-21T20:20:26.433Z,71.80
2023-08-21T20:23:28.205Z,72.20
2023-08-21T20:26:32.497Z,72.50
2023-08-21T20:29:34.446Z,72.80
2023-08-21T20:32:36.218Z,73.10
2023-08-21T20:35:38.024Z,73.40
2023-08-21T20:38:39.820Z,73.70
2023-08-21T20:41:41.546Z,74.10
2023-08-21T20:44:44.661Z,74.20
2023-08-21T20:47:46.581Z,74.60
2023-08-21T20:50:48.364Z,74.60
2023-08-21T20:53:50.311Z,75.00
2023-08-21T20:56:52.079Z,75.20
2023-08-21T20:59:54.181Z,75.50
2023-08-21T21:02:56.228Z,75.90
2023-08-21T21:05:58.104Z,76.10
2023-08-21T21:08:59.925Z,76.20
2023-08-21T21:12:02.081Z,76.40
2023-08-21T21:15:04.973Z,76.60
2023-08-21T21:18:06.994Z,77.00
2023-08-21T21:21:08.804Z,77.20
2023-08-21T21:24:10.763Z,77.40
2023-08-21T21:27:12.538Z,77.70
2023-08-21T21:30:14.329Z,77.90
2023-08-21T21:33:16.098Z,77.90
2023-08-21T21:36:17.887Z,78.20
2023-08-21T21:39:19.725Z,78.50
2023-08-21T21:42:21.482Z,78.80
2023-08-21T21:45:23.332Z,79.10
2023-08-21T21:48:28.659Z,79.30
2023-08-21T21:51:30.485Z,80.00
2023-08-21T21:54:32.417Z,80.00
2023-08-21T21:57:34.198Z,80.00
2023-08-21T22:00:36.200Z,80.30
2023-08-21T22:03:39.441Z,80.60
2023-08-21T22:06:43.133Z,80.90
2023-08-21T22:09:45.878Z,81.30
2023-08-21T22:12:47.844Z,81.40
2023-08-21T22:15:49.863Z,81.50
2023-08-21T22:18:52.223Z,82.40
2023-08-21T22:21:54.011Z,82.00
2023-08-21T22:24:55.836Z,82.30
2023-08-21T22:27:57.876Z,82.60
2023-08-21T22:30:59.934Z,82.70
2023-08-21T22:34:01.714Z,82.90
2023-08-21T22:37:03.495Z,83.10
2023-08-21T22:40:06.371Z,83.10
2023-08-21T22:43:08.168Z,83.40
2023-08-21T22:46:09.964Z,83.50
2023-08-21T22:49:11.763Z,83.70
2023-08-21T22:52:13.945Z,83.80
2023-08-21T22:55:15.892Z,83.90
2023-08-21T22:58:17.664Z,84.20
2023-08-21T23:01:19.458Z,84.20
2023-08-21T23:04:21.365Z,84.60
2023-08-21T23:07:23.092Z,84.80
2023-08-21T23:10:24.911Z,85.00
2023-08-21T23:13:26.700Z,85.20
2023-08-21T23:16:28.909Z,85.20
2023-08-21T23:19:30.667Z,85.40
2023-08-21T23:22:32.417Z,85.50
2023-08-21T23:25:36.180Z,85.70
2023-08-21T23:28:38.050Z,86.20
2023-08-21T23:31:39.949Z,86.20
2023-08-21T23:34:41.868Z,86.30
2023-08-21T23:37:43.809Z,86.60
2023-08-21T23:40:45.732Z,86.80
2023-08-21T23:43:48.252Z,86.90
2023-08-21T23:46:50.076Z,87.20
2023-08-21T23:49:51.982Z,87.20
2023-08-21T23:52:53.873Z,87.50
2023-08-21T23:55:55.929Z,87.70
2023-08-21T23:58:58.700Z,87.80
